sensor_id;sensor_type;location;lat;lon;timestamp;P1;durP1;ratioP1;P2;durP2;ratioP2
52268;SDS011;38224;50.950;4.100;2023-04-23T00:00:48;35.75;;;25.73;;
52268;SDS011;38224;50.950;4.100;2023-04-23T00:03:15;39.75;;;26.45;;
52268;SDS011;38224;50.950;4.100;2023-04-23T00:05:43;35.60;;;25.38;;
52268;SDS011;38224;50.950;4.100;2023-04-23T00:08:09;35.05;;;25.38;;
52268;SDS011;38224;50.950;4.100;2023-04-23T00:10:35;35.40;;;24.13;;
52268;SDS011;38224;50.950;4.100;2023-04-23T00:13:00;34.03;;;25.00;;
52268;SDS011;38224;50.950;4.100;2023-04-23T00:15:25;35.30;;;25.65;;
52268;SDS011;38224;50.950;4.100;2023-04-23T00:17:51;34.88;;;25.55;;
52268;SDS011;38224;50.950;4.100;2023-04-23T00:20:16;36.03;;;25.27;;
52268;SDS011;38224;50.950;4.100;2023-04-23T00:22:42;37.08;;;25.20;;
52268;SDS011;38224;50.950;4.100;2023-04-23T00:25:08;37.00;;;25.67;;
52268;SDS011;38224;50.950;4.100;2023-04-23T00:27:34;36.50;;;26.58;;
52268;SDS011;38224;50.950;4.100;2023-04-23T00:29:59;35.80;;;25.38;;
52268;SDS011;38224;50.950;4.100;2023-04-23T00:32:25;37.95;;;26.33;;
52268;SDS011;38224;50.950;4.100;2023-04-23T00:34:50;37.10;;;25.45;;
52268;SDS011;38224;50.950;4.100;2023-04-23T00:37:19;37.03;;;26.27;;
52268;SDS011;38224;50.950;4.100;2023-04-23T00:39:44;33.28;;;24.90;;
52268;SDS011;38224;50.950;4.100;2023-04-23T00:42:10;34.03;;;24.57;;
52268;SDS011;38224;50.950;4.100;2023-04-23T00:44:38;36.95;;;26.55;;
52268;SDS011;38224;50.950;4.100;2023-04-23T00:47:06;32.90;;;24.92;;
52268;SDS011;38224;50.950;4.100;2023-04-23T00:49:33;40.17;;;26.45;;
52268;SDS011;38224;50.950;4.100;2023-04-23T00:51:59;33.97;;;25.38;;
52268;SDS011;38224;50.950;4.100;2023-04-23T00:54:27;37.05;;;25.95;;
52268;SDS011;38224;50.950;4.100;2023-04-23T00:56:52;37.88;;;25.73;;
52268;SDS011;38224;50.950;4.100;2023-04-23T00:59:18;38.95;;;25.30;;
52268;SDS011;38224;50.950;4.100;2023-04-23T01:01:44;38.03;;;26.23;;
52268;SDS011;38224;50.950;4.100;2023-04-23T01:04:10;37.90;;;25.98;;
52268;SDS011;38224;50.950;4.100;2023-04-23T01:06:36;37.80;;;26.25;;
52268;SDS011;38224;50.950;4.100;2023-04-23T01:09:02;33.50;;;23.98;;
52268;SDS011;38224;50.950;4.100;2023-04-23T01:11:27;32.90;;;24.50;;
52268;SDS011;38224;50.950;4.100;2023-04-23T01:13:54;34.88;;;24.95;;
52268;SDS011;38224;50.950;4.100;2023-04-23T01:16:20;31.60;;;24.42;;
52268;SDS011;38224;50.950;4.100;2023-04-23T01:18:46;33.25;;;24.33;;
52268;SDS011;38224;50.950;4.100;2023-04-23T01:21:11;33.55;;;24.05;;
52268;SDS011;38224;50.950;4.100;2023-04-23T01:23:37;32.70;;;24.38;;
52268;SDS011;38224;50.950;4.100;2023-04-23T01:26:02;33.20;;;23.17;;
52268;SDS011;38224;50.950;4.100;2023-04-23T01:28:28;32.80;;;23.83;;
52268;SDS011;38224;50.950;4.100;2023-04-23T01:30:54;32.00;;;22.98;;
52268;SDS011;38224;50.950;4.100;2023-04-23T01:33:20;33.78;;;23.52;;
52268;SDS011;38224;50.950;4.100;2023-04-23T01:35:45;32.97;;;24.08;;
52268;SDS011;38224;50.950;4.100;2023-04-23T01:38:11;35.58;;;24.20;;
52268;SDS011;38224;50.950;4.100;2023-04-23T01:40:38;29.90;;;22.83;;
52268;SDS011;38224;50.950;4.100;2023-04-23T01:43:03;30.13;;;22.58;;
52268;SDS011;38224;50.950;4.100;2023-04-23T01:45:29;35.78;;;22.02;;
52268;SDS011;38224;50.950;4.100;2023-04-23T01:47:55;31.35;;;22.73;;
52268;SDS011;38224;50.950;4.100;2023-04-23T01:50:20;36.10;;;23.00;;
52268;SDS011;38224;50.950;4.100;2023-04-23T01:52:48;29.23;;;21.38;;
52268;SDS011;38224;50.950;4.100;2023-04-23T01:55:14;32.33;;;22.40;;
52268;SDS011;38224;50.950;4.100;2023-04-23T01:57:39;32.10;;;23.27;;
52268;SDS011;38224;50.950;4.100;2023-04-23T02:00:09;29.85;;;23.27;;
52268;SDS011;38224;50.950;4.100;2023-04-23T02:02:35;31.92;;;22.42;;
52268;SDS011;38224;50.950;4.100;2023-04-23T02:05:01;31.83;;;23.33;;
52268;SDS011;38224;50.950;4.100;2023-04-23T02:07:32;36.58;;;23.52;;
52268;SDS011;38224;50.950;4.100;2023-04-23T02:09:58;32.88;;;23.70;;
52268;SDS011;38224;50.950;4.100;2023-04-23T02:12:23;29.48;;;22.45;;
52268;SDS011;38224;50.950;4.100;2023-04-23T02:14:49;33.17;;;22.60;;
52268;SDS011;38224;50.950;4.100;2023-04-23T02:17:14;30.17;;;22.95;;
52268;SDS011;38224;50.950;4.100;2023-04-23T02:19:40;31.23;;;21.77;;
52268;SDS011;38224;50.950;4.100;2023-04-23T02:22:05;35.90;;;22.37;;
52268;SDS011;38224;50.950;4.100;2023-04-23T02:24:31;28.42;;;21.45;;
52268;SDS011;38224;50.950;4.100;2023-04-23T02:26:56;28.45;;;21.60;;
52268;SDS011;38224;50.950;4.100;2023-04-23T02:29:22;31.60;;;22.43;;
52268;SDS011;38224;50.950;4.100;2023-04-23T02:31:47;30.60;;;22.15;;
52268;SDS011;38224;50.950;4.100;2023-04-23T02:34:12;29.77;;;21.33;;
52268;SDS011;38224;50.950;4.100;2023-04-23T02:36:37;32.05;;;21.38;;
52268;SDS011;38224;50.950;4.100;2023-04-23T02:39:03;29.08;;;20.98;;
52268;SDS011;38224;50.950;4.100;2023-04-23T02:41:28;26.20;;;18.92;;
52268;SDS011;38224;50.950;4.100;2023-04-23T02:43:53;27.30;;;20.03;;
52268;SDS011;38224;50.950;4.100;2023-04-23T02:46:18;27.50;;;18.83;;
52268;SDS011;38224;50.950;4.100;2023-04-23T02:48:44;27.70;;;19.05;;
52268;SDS011;38224;50.950;4.100;2023-04-23T02:51:10;30.20;;;18.95;;
52268;SDS011;38224;50.950;4.100;2023-04-23T02:53:35;21.80;;;17.52;;
52268;SDS011;38224;50.950;4.100;2023-04-23T02:56:01;25.60;;;16.73;;
52268;SDS011;38224;50.950;4.100;2023-04-23T02:58:27;29.55;;;17.95;;
52268;SDS011;38224;50.950;4.100;2023-04-23T03:00:52;26.88;;;17.60;;
52268;SDS011;38224;50.950;4.100;2023-04-23T03:03:17;22.40;;;17.67;;
52268;SDS011;38224;50.950;4.100;2023-04-23T03:05:43;26.35;;;17.38;;
52268;SDS011;38224;50.950;4.100;2023-04-23T03:08:08;23.98;;;16.63;;
52268;SDS011;38224;50.950;4.100;2023-04-23T03:10:33;25.55;;;18.35;;
52268;SDS011;38224;50.950;4.100;2023-04-23T03:12:58;24.50;;;17.00;;
52268;SDS011;38224;50.950;4.100;2023-04-23T03:15:24;24.17;;;16.33;;
52268;SDS011;38224;50.950;4.100;2023-04-23T03:17:49;25.92;;;17.75;;
52268;SDS011;38224;50.950;4.100;2023-04-23T03:20:16;31.13;;;17.50;;
52268;SDS011;38224;50.950;4.100;2023-04-23T03:22:42;25.00;;;17.55;;
52268;SDS011;38224;50.950;4.100;2023-04-23T03:25:08;23.75;;;16.88;;
52268;SDS011;38224;50.950;4.100;2023-04-23T03:27:33;26.85;;;16.85;;
52268;SDS011;38224;50.950;4.100;2023-04-23T03:29:58;27.90;;;16.98;;
52268;SDS011;38224;50.950;4.100;2023-04-23T03:32:23;24.90;;;17.27;;
52268;SDS011;38224;50.950;4.100;2023-04-23T03:34:49;22.85;;;16.15;;
52268;SDS011;38224;50.950;4.100;2023-04-23T03:37:17;23.33;;;16.15;;
52268;SDS011;38224;50.950;4.100;2023-04-23T03:39:42;23.27;;;16.25;;
52268;SDS011;38224;50.950;4.100;2023-04-23T03:42:08;23.77;;;16.48;;
52268;SDS011;38224;50.950;4.100;2023-04-23T03:44:33;26.42;;;16.98;;
52268;SDS011;38224;50.950;4.100;2023-04-23T03:46:58;27.70;;;16.27;;
52268;SDS011;38224;50.950;4.100;2023-04-23T03:49:25;24.83;;;16.97;;
52268;SDS011;38224;50.950;4.100;2023-04-23T03:51:50;28.50;;;17.33;;
52268;SDS011;38224;50.950;4.100;2023-04-23T03:54:15;21.98;;;16.02;;
52268;SDS011;38224;50.950;4.100;2023-04-23T03:56:41;23.88;;;16.30;;
52268;SDS011;38224;50.950;4.100;2023-04-23T03:59:06;27.37;;;18.63;;
52268;SDS011;38224;50.950;4.100;2023-04-23T04:01:31;23.87;;;16.80;;
52268;SDS011;38224;50.950;4.100;2023-04-23T04:03:57;26.63;;;16.42;;
52268;SDS011;38224;50.950;4.100;2023-04-23T04:06:22;25.95;;;16.13;;
52268;SDS011;38224;50.950;4.100;2023-04-23T04:08:47;26.77;;;18.27;;
52268;SDS011;38224;50.950;4.100;2023-04-23T04:11:13;25.40;;;17.63;;
52268;SDS011;38224;50.950;4.100;2023-04-23T04:13:38;25.13;;;17.35;;
52268;SDS011;38224;50.950;4.100;2023-04-23T04:16:03;25.67;;;17.27;;
52268;SDS011;38224;50.950;4.100;2023-04-23T04:18:28;25.35;;;17.33;;
52268;SDS011;38224;50.950;4.100;2023-04-23T04:20:54;26.35;;;17.50;;
52268;SDS011;38224;50.950;4.100;2023-04-23T04:23:19;23.85;;;16.90;;
52268;SDS011;38224;50.950;4.100;2023-04-23T04:25:45;29.77;;;18.20;;
52268;SDS011;38224;50.950;4.100;2023-04-23T04:28:10;28.10;;;18.30;;
52268;SDS011;38224;50.950;4.100;2023-04-23T04:30:36;23.98;;;16.42;;
52268;SDS011;38224;50.950;4.100;2023-04-23T04:33:02;28.33;;;18.25;;
52268;SDS011;38224;50.950;4.100;2023-04-23T04:35:27;27.70;;;18.25;;
52268;SDS011;38224;50.950;4.100;2023-04-23T04:37:53;24.92;;;17.98;;
52268;SDS011;38224;50.950;4.100;2023-04-23T04:40:19;27.08;;;18.17;;
52268;SDS011;38224;50.950;4.100;2023-04-23T04:42:44;25.80;;;18.10;;
52268;SDS011;38224;50.950;4.100;2023-04-23T04:45:10;27.67;;;18.33;;
52268;SDS011;38224;50.950;4.100;2023-04-23T04:47:35;27.83;;;17.13;;
52268;SDS011;38224;50.950;4.100;2023-04-23T04:50:01;29.13;;;17.17;;
52268;SDS011;38224;50.950;4.100;2023-04-23T04:52:26;24.15;;;16.63;;
52268;SDS011;38224;50.950;4.100;2023-04-23T04:54:51;23.03;;;15.73;;
52268;SDS011;38224;50.950;4.100;2023-04-23T04:57:17;25.43;;;16.17;;
52268;SDS011;38224;50.950;4.100;2023-04-23T04:59:43;22.35;;;15.85;;
52268;SDS011;38224;50.950;4.100;2023-04-23T05:02:09;27.02;;;17.20;;
52268;SDS011;38224;50.950;4.100;2023-04-23T05:04:34;21.85;;;16.35;;
52268;SDS011;38224;50.950;4.100;2023-04-23T05:07:00;22.60;;;14.88;;
52268;SDS011;38224;50.950;4.100;2023-04-23T05:09:25;22.63;;;14.32;;
52268;SDS011;38224;50.950;4.100;2023-04-23T05:11:51;21.50;;;14.45;;
52268;SDS011;38224;50.950;4.100;2023-04-23T05:14:16;22.08;;;14.05;;
52268;SDS011;38224;50.950;4.100;2023-04-23T05:16:41;19.55;;;12.57;;
52268;SDS011;38224;50.950;4.100;2023-04-23T05:19:06;17.50;;;11.73;;
52268;SDS011;38224;50.950;4.100;2023-04-23T05:21:32;18.10;;;11.00;;
52268;SDS011;38224;50.950;4.100;2023-04-23T05:23:58;19.73;;;11.70;;
52268;SDS011;38224;50.950;4.100;2023-04-23T05:26:23;22.57;;;11.77;;
52268;SDS011;38224;50.950;4.100;2023-04-23T05:28:48;19.23;;;11.10;;
52268;SDS011;38224;50.950;4.100;2023-04-23T05:31:13;20.07;;;10.47;;
52268;SDS011;38224;50.950;4.100;2023-04-23T05:33:39;24.92;;;9.88;;
52268;SDS011;38224;50.950;4.100;2023-04-23T05:36:04;17.60;;;9.65;;
52268;SDS011;38224;50.950;4.100;2023-04-23T05:38:30;20.45;;;9.52;;
52268;SDS011;38224;50.950;4.100;2023-04-23T05:40:55;14.07;;;8.55;;
52268;SDS011;38224;50.950;4.100;2023-04-23T05:43:20;16.07;;;8.30;;
52268;SDS011;38224;50.950;4.100;2023-04-23T05:45:45;18.20;;;8.00;;
52268;SDS011;38224;50.950;4.100;2023-04-23T05:48:11;15.98;;;8.25;;
52268;SDS011;38224;50.950;4.100;2023-04-23T05:50:36;14.75;;;7.43;;
52268;SDS011;38224;50.950;4.100;2023-04-23T05:53:01;10.38;;;6.50;;
52268;SDS011;38224;50.950;4.100;2023-04-23T05:55:26;15.60;;;8.15;;
52268;SDS011;38224;50.950;4.100;2023-04-23T05:57:52;13.80;;;8.47;;
52268;SDS011;38224;50.950;4.100;2023-04-23T06:00:17;16.38;;;7.40;;
52268;SDS011;38224;50.950;4.100;2023-04-23T06:02:43;12.73;;;7.22;;
52268;SDS011;38224;50.950;4.100;2023-04-23T06:05:08;11.10;;;6.20;;
52268;SDS011;38224;50.950;4.100;2023-04-23T06:07:33;13.55;;;6.13;;
52268;SDS011;38224;50.950;4.100;2023-04-23T06:10:00;11.70;;;6.57;;
52268;SDS011;38224;50.950;4.100;2023-04-23T06:12:25;10.20;;;6.18;;
52268;SDS011;38224;50.950;4.100;2023-04-23T06:14:51;15.13;;;6.07;;
52268;SDS011;38224;50.950;4.100;2023-04-23T06:17:16;14.00;;;5.40;;
52268;SDS011;38224;50.950;4.100;2023-04-23T06:19:42;12.60;;;5.18;;
52268;SDS011;38224;50.950;4.100;2023-04-23T06:22:07;16.33;;;5.13;;
52268;SDS011;38224;50.950;4.100;2023-04-23T06:24:32;14.00;;;5.37;;
52268;SDS011;38224;50.950;4.100;2023-04-23T06:26:57;15.10;;;5.18;;
52268;SDS011;38224;50.950;4.100;2023-04-23T06:29:23;9.93;;;4.67;;
52268;SDS011;38224;50.950;4.100;2023-04-23T06:31:48;10.43;;;4.78;;
52268;SDS011;38224;50.950;4.100;2023-04-23T06:34:13;11.77;;;5.23;;
52268;SDS011;38224;50.950;4.100;2023-04-23T06:36:39;13.30;;;5.05;;
52268;SDS011;38224;50.950;4.100;2023-04-23T06:39:04;9.20;;;4.53;;
52268;SDS011;38224;50.950;4.100;2023-04-23T06:41:30;10.27;;;3.92;;
52268;SDS011;38224;50.950;4.100;2023-04-23T06:43:55;12.95;;;4.93;;
52268;SDS011;38224;50.950;4.100;2023-04-23T06:46:20;12.00;;;4.23;;
52268;SDS011;38224;50.950;4.100;2023-04-23T06:48:45;12.23;;;3.60;;
52268;SDS011;38224;50.950;4.100;2023-04-23T06:51:11;13.47;;;4.43;;
52268;SDS011;38224;50.950;4.100;2023-04-23T06:53:36;11.57;;;3.78;;
52268;SDS011;38224;50.950;4.100;2023-04-23T06:56:01;12.75;;;4.13;;
52268;SDS011;38224;50.950;4.100;2023-04-23T06:58:27;12.73;;;4.38;;
52268;SDS011;38224;50.950;4.100;2023-04-23T07:00:56;10.80;;;3.47;;
52268;SDS011;38224;50.950;4.100;2023-04-23T07:03:24;12.60;;;3.90;;
52268;SDS011;38224;50.950;4.100;2023-04-23T07:05:49;11.05;;;3.20;;
52268;SDS011;38224;50.950;4.100;2023-04-23T07:08:14;10.03;;;3.63;;
52268;SDS011;38224;50.950;4.100;2023-04-23T07:10:40;13.73;;;4.10;;
52268;SDS011;38224;50.950;4.100;2023-04-23T07:13:05;10.43;;;3.35;;
52268;SDS011;38224;50.950;4.100;2023-04-23T07:15:30;9.35;;;3.72;;
52268;SDS011;38224;50.950;4.100;2023-04-23T07:17:56;29.00;;;3.73;;
52268;SDS011;38224;50.950;4.100;2023-04-23T07:20:21;9.90;;;3.23;;
52268;SDS011;38224;50.950;4.100;2023-04-23T07:22:46;11.85;;;4.00;;
52268;SDS011;38224;50.950;4.100;2023-04-23T07:25:12;11.43;;;3.75;;
52268;SDS011;38224;50.950;4.100;2023-04-23T07:27:37;11.03;;;3.97;;
52268;SDS011;38224;50.950;4.100;2023-04-23T07:30:02;17.15;;;3.30;;
52268;SDS011;38224;50.950;4.100;2023-04-23T07:32:29;12.05;;;3.47;;
52268;SDS011;38224;50.950;4.100;2023-04-23T07:34:54;15.53;;;3.57;;
52268;SDS011;38224;50.950;4.100;2023-04-23T07:37:22;10.73;;;3.08;;
52268;SDS011;38224;50.950;4.100;2023-04-23T07:39:47;11.17;;;3.60;;
52268;SDS011;38224;50.950;4.100;2023-04-23T07:42:13;10.40;;;3.17;;
52268;SDS011;38224;50.950;4.100;2023-04-23T07:44:38;8.20;;;2.93;;
52268;SDS011;38224;50.950;4.100;2023-04-23T07:47:03;11.43;;;2.90;;
52268;SDS011;38224;50.950;4.100;2023-04-23T07:49:28;11.23;;;2.60;;
52268;SDS011;38224;50.950;4.100;2023-04-23T07:51:54;13.47;;;3.40;;
52268;SDS011;38224;50.950;4.100;2023-04-23T07:54:19;10.43;;;3.07;;
52268;SDS011;38224;50.950;4.100;2023-04-23T07:56:44;7.90;;;3.05;;
52268;SDS011;38224;50.950;4.100;2023-04-23T07:59:09;7.28;;;2.28;;
52268;SDS011;38224;50.950;4.100;2023-04-23T08:01:35;14.37;;;3.67;;
52268;SDS011;38224;50.950;4.100;2023-04-23T08:04:00;9.57;;;2.45;;
52268;SDS011;38224;50.950;4.100;2023-04-23T08:06:26;9.68;;;3.13;;
52268;SDS011;38224;50.950;4.100;2023-04-23T08:08:53;11.60;;;3.33;;
52268;SDS011;38224;50.950;4.100;2023-04-23T08:11:20;8.93;;;3.42;;
52268;SDS011;38224;50.950;4.100;2023-04-23T08:13:45;12.00;;;3.15;;
52268;SDS011;38224;50.950;4.100;2023-04-23T08:16:10;12.30;;;3.27;;
52268;SDS011;38224;50.950;4.100;2023-04-23T08:18:35;8.73;;;2.50;;
52268;SDS011;38224;50.950;4.100;2023-04-23T08:21:01;12.50;;;3.28;;
52268;SDS011;38224;50.950;4.100;2023-04-23T08:23:26;10.07;;;3.10;;
52268;SDS011;38224;50.950;4.100;2023-04-23T08:25:51;9.83;;;3.20;;
52268;SDS011;38224;50.950;4.100;2023-04-23T08:28:17;11.20;;;2.50;;
52268;SDS011;38224;50.950;4.100;2023-04-23T08:30:43;10.85;;;2.75;;
52268;SDS011;38224;50.950;4.100;2023-04-23T08:33:08;9.40;;;3.13;;
52268;SDS011;38224;50.950;4.100;2023-04-23T08:35:33;11.45;;;2.90;;
52268;SDS011;38224;50.950;4.100;2023-04-23T08:37:59;8.37;;;2.73;;
52268;SDS011;38224;50.950;4.100;2023-04-23T08:40:25;15.00;;;2.93;;
52268;SDS011;38224;50.950;4.100;2023-04-23T08:42:52;18.88;;;4.63;;
52268;SDS011;38224;50.950;4.100;2023-04-23T08:45:20;15.27;;;4.25;;
52268;SDS011;38224;50.950;4.100;2023-04-23T08:47:45;8.23;;;2.85;;
52268;SDS011;38224;50.950;4.100;2023-04-23T08:50:11;12.60;;;3.15;;
52268;SDS011;38224;50.950;4.100;2023-04-23T08:52:38;17.77;;;3.90;;
52268;SDS011;38224;50.950;4.100;2023-04-23T08:55:04;9.07;;;2.78;;
52268;SDS011;38224;50.950;4.100;2023-04-23T08:57:31;13.05;;;3.97;;
52268;SDS011;38224;50.950;4.100;2023-04-23T08:59:56;12.10;;;2.80;;
52268;SDS011;38224;50.950;4.100;2023-04-23T09:02:22;14.07;;;3.13;;
52268;SDS011;38224;50.950;4.100;2023-04-23T09:04:47;14.85;;;3.00;;
52268;SDS011;38224;50.950;4.100;2023-04-23T09:07:12;8.27;;;2.37;;
52268;SDS011;38224;50.950;4.100;2023-04-23T09:09:39;10.00;;;2.15;;
52268;SDS011;38224;50.950;4.100;2023-04-23T09:12:05;7.28;;;2.60;;
52268;SDS011;38224;50.950;4.100;2023-04-23T09:14:31;12.00;;;2.95;;
52268;SDS011;38224;50.950;4.100;2023-04-23T09:16:56;10.85;;;2.92;;
52268;SDS011;38224;50.950;4.100;2023-04-23T09:19:21;10.90;;;2.67;;
52268;SDS011;38224;50.950;4.100;2023-04-23T09:21:48;9.63;;;2.72;;
52268;SDS011;38224;50.950;4.100;2023-04-23T09:24:15;35.95;;;5.95;;
52268;SDS011;38224;50.950;4.100;2023-04-23T09:26:46;11.68;;;2.25;;
52268;SDS011;38224;50.950;4.100;2023-04-23T09:29:15;26.40;;;4.50;;
52268;SDS011;38224;50.950;4.100;2023-04-23T09:31:42;7.90;;;2.63;;
52268;SDS011;38224;50.950;4.100;2023-04-23T09:34:08;7.90;;;2.53;;
52268;SDS011;38224;50.950;4.100;2023-04-23T09:36:33;6.50;;;2.53;;
52268;SDS011;38224;50.950;4.100;2023-04-23T09:39:01;14.60;;;3.28;;
52268;SDS011;38224;50.950;4.100;2023-04-23T09:41:26;9.15;;;2.15;;
52268;SDS011;38224;50.950;4.100;2023-04-23T09:43:53;14.23;;;3.08;;
52268;SDS011;38224;50.950;4.100;2023-04-23T09:46:30;16.05;;;2.65;;
52268;SDS011;38224;50.950;4.100;2023-04-23T09:48:56;9.07;;;2.22;;
52268;SDS011;38224;50.950;4.100;2023-04-23T09:51:23;7.80;;;2.73;;
52268;SDS011;38224;50.950;4.100;2023-04-23T09:53:48;10.98;;;2.47;;
52268;SDS011;38224;50.950;4.100;2023-04-23T09:56:14;11.38;;;3.50;;
52268;SDS011;38224;50.950;4.100;2023-04-23T09:58:39;12.40;;;2.80;;
52268;SDS011;38224;50.950;4.100;2023-04-23T10:01:05;11.13;;;3.05;;
52268;SDS011;38224;50.950;4.100;2023-04-23T10:03:30;9.98;;;2.78;;
52268;SDS011;38224;50.950;4.100;2023-04-23T10:05:55;12.37;;;3.10;;
52268;SDS011;38224;50.950;4.100;2023-04-23T10:08:22;10.05;;;2.70;;
52268;SDS011;38224;50.950;4.100;2023-04-23T10:10:48;9.85;;;3.05;;
52268;SDS011;38224;50.950;4.100;2023-04-23T10:13:13;9.80;;;2.15;;
52268;SDS011;38224;50.950;4.100;2023-04-23T10:15:39;12.05;;;3.33;;
52268;SDS011;38224;50.950;4.100;2023-04-23T10:18:04;13.05;;;2.92;;
52268;SDS011;38224;50.950;4.100;2023-04-23T10:20:32;19.55;;;3.60;;
52268;SDS011;38224;50.950;4.100;2023-04-23T10:22:58;14.90;;;3.92;;
52268;SDS011;38224;50.950;4.100;2023-04-23T10:25:24;9.63;;;3.05;;
52268;SDS011;38224;50.950;4.100;2023-04-23T10:27:50;11.25;;;2.75;;
52268;SDS011;38224;50.950;4.100;2023-04-23T10:30:20;11.75;;;3.17;;
52268;SDS011;38224;50.950;4.100;2023-04-23T10:32:47;11.90;;;2.97;;
52268;SDS011;38224;50.950;4.100;2023-04-23T10:35:12;10.13;;;2.65;;
52268;SDS011;38224;50.950;4.100;2023-04-23T10:37:37;10.63;;;2.13;;
52268;SDS011;38224;50.950;4.100;2023-04-23T10:40:07;12.63;;;2.38;;
52268;SDS011;38224;50.950;4.100;2023-04-23T10:42:35;8.55;;;2.38;;
52268;SDS011;38224;50.950;4.100;2023-04-23T10:45:01;7.22;;;1.90;;
52268;SDS011;38224;50.950;4.100;2023-04-23T10:47:32;9.25;;;1.98;;
52268;SDS011;38224;50.950;4.100;2023-04-23T10:49:57;12.70;;;2.22;;
52268;SDS011;38224;50.950;4.100;2023-04-23T10:52:42;13.30;;;2.25;;
52268;SDS011;38224;50.950;4.100;2023-04-23T10:55:14;12.52;;;2.15;;
52268;SDS011;38224;50.950;4.100;2023-04-23T10:57:56;11.00;;;2.15;;
52268;SDS011;38224;50.950;4.100;2023-04-23T11:00:22;9.55;;;2.50;;
52268;SDS011;38224;50.950;4.100;2023-04-23T11:02:47;10.18;;;2.58;;
52268;SDS011;38224;50.950;4.100;2023-04-23T11:05:14;8.85;;;2.40;;
52268;SDS011;38224;50.950;4.100;2023-04-23T11:07:40;6.50;;;1.80;;
52268;SDS011;38224;50.950;4.100;2023-04-23T11:10:12;11.20;;;2.70;;
52268;SDS011;38224;50.950;4.100;2023-04-23T11:12:38;11.60;;;2.57;;
52268;SDS011;38224;50.950;4.100;2023-04-23T11:15:13;11.32;;;2.67;;
52268;SDS011;38224;50.950;4.100;2023-04-23T11:20:18;15.98;;;2.55;;
52268;SDS011;38224;50.950;4.100;2023-04-23T11:22:44;10.68;;;2.30;;
52268;SDS011;38224;50.950;4.100;2023-04-23T11:25:11;10.00;;;2.38;;
52268;SDS011;38224;50.950;4.100;2023-04-23T11:27:37;10.10;;;2.30;;
52268;SDS011;38224;50.950;4.100;2023-04-23T11:30:02;9.23;;;2.13;;
52268;SDS011;38224;50.950;4.100;2023-04-23T11:32:29;17.42;;;3.08;;
52268;SDS011;38224;50.950;4.100;2023-04-23T11:34:54;11.85;;;2.75;;
52268;SDS011;38224;50.950;4.100;2023-04-23T11:37:21;10.15;;;2.45;;
52268;SDS011;38224;50.950;4.100;2023-04-23T11:39:48;11.27;;;3.28;;
52268;SDS011;38224;50.950;4.100;2023-04-23T11:42:15;15.57;;;2.60;;
52268;SDS011;38224;50.950;4.100;2023-04-23T11:44:42;11.02;;;3.03;;
52268;SDS011;38224;50.950;4.100;2023-04-23T11:47:07;9.05;;;2.28;;
52268;SDS011;38224;50.950;4.100;2023-04-23T11:49:35;13.27;;;2.83;;
52268;SDS011;38224;50.950;4.100;2023-04-23T11:52:01;10.10;;;2.35;;
52268;SDS011;38224;50.950;4.100;2023-04-23T11:54:27;14.82;;;2.97;;
52268;SDS011;38224;50.950;4.100;2023-04-23T11:56:53;6.60;;;1.88;;
52268;SDS011;38224;50.950;4.100;2023-04-23T11:59:19;7.43;;;1.70;;
52268;SDS011;38224;50.950;4.100;2023-04-23T12:01:48;11.70;;;2.63;;
52268;SDS011;38224;50.950;4.100;2023-04-23T12:04:15;7.97;;;2.50;;
52268;SDS011;38224;50.950;4.100;2023-04-23T12:06:41;7.32;;;2.10;;
52268;SDS011;38224;50.950;4.100;2023-04-23T12:09:07;6.43;;;2.22;;
52268;SDS011;38224;50.950;4.100;2023-04-23T12:11:35;9.38;;;2.40;;
52268;SDS011;38224;50.950;4.100;2023-04-23T12:14:01;11.90;;;2.05;;
52268;SDS011;38224;50.950;4.100;2023-04-23T12:16:33;10.43;;;2.47;;
52268;SDS011;38224;50.950;4.100;2023-04-23T12:19:01;7.93;;;2.10;;
52268;SDS011;38224;50.950;4.100;2023-04-23T12:21:26;9.15;;;1.88;;
52268;SDS011;38224;50.950;4.100;2023-04-23T12:23:55;5.65;;;1.85;;
52268;SDS011;38224;50.950;4.100;2023-04-23T12:26:21;7.57;;;2.20;;
52268;SDS011;38224;50.950;4.100;2023-04-23T12:28:52;9.88;;;2.97;;
52268;SDS011;38224;50.950;4.100;2023-04-23T12:31:21;10.50;;;2.97;;
52268;SDS011;38224;50.950;4.100;2023-04-23T12:33:52;9.18;;;2.83;;
52268;SDS011;38224;50.950;4.100;2023-04-23T12:36:17;12.70;;;2.58;;
52268;SDS011;38224;50.950;4.100;2023-04-23T12:38:42;10.53;;;2.70;;
52268;SDS011;38224;50.950;4.100;2023-04-23T12:41:08;10.90;;;3.00;;
52268;SDS011;38224;50.950;4.100;2023-04-23T12:43:33;9.90;;;2.42;;
52268;SDS011;38224;50.950;4.100;2023-04-23T12:45:58;11.27;;;2.53;;
52268;SDS011;38224;50.950;4.100;2023-04-23T12:48:24;9.70;;;2.67;;
52268;SDS011;38224;50.950;4.100;2023-04-23T12:50:49;10.25;;;3.25;;
52268;SDS011;38224;50.950;4.100;2023-04-23T12:53:14;8.00;;;2.78;;
52268;SDS011;38224;50.950;4.100;2023-04-23T12:55:40;8.50;;;2.50;;
52268;SDS011;38224;50.950;4.100;2023-04-23T12:58:07;8.93;;;2.58;;
52268;SDS011;38224;50.950;4.100;2023-04-23T13:00:32;10.18;;;2.40;;
52268;SDS011;38224;50.950;4.100;2023-04-23T13:02:57;10.45;;;2.58;;
52268;SDS011;38224;50.950;4.100;2023-04-23T13:05:23;13.73;;;3.10;;
52268;SDS011;38224;50.950;4.100;2023-04-23T13:07:48;13.00;;;2.80;;
52268;SDS011;38224;50.950;4.100;2023-04-23T13:10:13;7.63;;;2.73;;
52268;SDS011;38224;50.950;4.100;2023-04-23T13:12:38;10.88;;;2.65;;
52268;SDS011;38224;50.950;4.100;2023-04-23T13:15:05;7.88;;;3.20;;
52268;SDS011;38224;50.950;4.100;2023-04-23T13:17:30;11.80;;;3.28;;
52268;SDS011;38224;50.950;4.100;2023-04-23T13:19:56;14.13;;;3.47;;
52268;SDS011;38224;50.950;4.100;2023-04-23T13:22:21;12.60;;;3.08;;
52268;SDS011;38224;50.950;4.100;2023-04-23T13:24:46;10.38;;;3.35;;
52268;SDS011;38224;50.950;4.100;2023-04-23T13:27:12;6.72;;;2.40;;
52268;SDS011;38224;50.950;4.100;2023-04-23T13:29:38;10.88;;;3.40;;
52268;SDS011;38224;50.950;4.100;2023-04-23T13:32:04;6.10;;;2.65;;
52268;SDS011;38224;50.950;4.100;2023-04-23T13:34:29;9.38;;;3.03;;
52268;SDS011;38224;50.950;4.100;2023-04-23T13:36:54;5.78;;;2.50;;
52268;SDS011;38224;50.950;4.100;2023-04-23T13:39:21;6.30;;;2.50;;
52268;SDS011;38224;50.950;4.100;2023-04-23T13:41:47;8.60;;;2.33;;
52268;SDS011;38224;50.950;4.100;2023-04-23T13:44:12;7.17;;;2.33;;
52268;SDS011;38224;50.950;4.100;2023-04-23T13:46:39;7.35;;;2.95;;
52268;SDS011;38224;50.950;4.100;2023-04-23T13:49:05;7.57;;;2.20;;
52268;SDS011;38224;50.950;4.100;2023-04-23T13:51:30;7.88;;;2.58;;
52268;SDS011;38224;50.950;4.100;2023-04-23T13:53:55;9.45;;;3.53;;
52268;SDS011;38224;50.950;4.100;2023-04-23T13:56:20;7.28;;;2.72;;
52268;SDS011;38224;50.950;4.100;2023-04-23T13:58:46;8.85;;;2.70;;
52268;SDS011;38224;50.950;4.100;2023-04-23T14:01:12;4.72;;;2.85;;
52268;SDS011;38224;50.950;4.100;2023-04-23T14:03:39;8.13;;;2.60;;
52268;SDS011;38224;50.950;4.100;2023-04-23T14:06:04;8.73;;;2.80;;
52268;SDS011;38224;50.950;4.100;2023-04-23T14:08:30;8.20;;;2.38;;
52268;SDS011;38224;50.950;4.100;2023-04-23T14:10:56;5.88;;;2.53;;
52268;SDS011;38224;50.950;4.100;2023-04-23T14:13:21;8.07;;;2.53;;
52268;SDS011;38224;50.950;4.100;2023-04-23T14:15:47;5.03;;;2.40;;
52268;SDS011;38224;50.950;4.100;2023-04-23T14:18:12;5.50;;;2.40;;
52268;SDS011;38224;50.950;4.100;2023-04-23T14:20:37;3.63;;;2.10;;
52268;SDS011;38224;50.950;4.100;2023-04-23T14:23:10;5.87;;;2.43;;
52268;SDS011;38224;50.950;4.100;2023-04-23T14:25:57;4.18;;;2.35;;
52268;SDS011;38224;50.950;4.100;2023-04-23T14:28:26;5.60;;;2.20;;